sensor_id;sensor_type;location;lat;lon;timestamp;P1;durP1;ratioP1;P2;durP2;ratioP2
81229;SDS011;70701;44.452;18.652;2023-07-29T00:00:55;14.43;;;10.10;;
81229;SDS011;70701;44.452;18.652;2023-07-29T00:03:21;12.63;;;8.82;;
81229;SDS011;70701;44.452;18.652;2023-07-29T00:05:47;16.02;;;10.35;;
81229;SDS011;70701;44.452;18.652;2023-07-29T00:08:13;14.32;;;9.82;;
81229;SDS011;70701;44.452;18.652;2023-07-29T00:10:38;10.30;;;8.82;;
81229;SDS011;70701;44.452;18.652;2023-07-29T00:13:04;16.15;;;9.25;;
81229;SDS011;70701;44.452;18.652;2023-07-29T00:15:31;11.93;;;9.60;;
81229;SDS011;70701;44.452;18.652;2023-07-29T00:17:56;12.80;;;9.05;;
81229;SDS011;70701;44.452;18.652;2023-07-29T00:20:22;13.95;;;9.68;;
81229;SDS011;70701;44.452;18.652;2023-07-29T00:22:48;11.95;;;9.15;;
81229;SDS011;70701;44.452;18.652;2023-07-29T00:25:15;13.70;;;9.55;;
81229;SDS011;70701;44.452;18.652;2023-07-29T00:27:42;11.88;;;9.43;;
81229;SDS011;70701;44.452;18.652;2023-07-29T00:30:07;19.73;;;10.32;;
81229;SDS011;70701;44.452;18.652;2023-07-29T00:32:35;10.80;;;9.20;;
81229;SDS011;70701;44.452;18.652;2023-07-29T00:35:01;11.93;;;9.15;;
81229;SDS011;70701;44.452;18.652;2023-07-29T00:37:30;13.70;;;9.45;;
81229;SDS011;70701;44.452;18.652;2023-07-29T00:39:56;11.63;;;9.52;;
81229;SDS011;70701;44.452;18.652;2023-07-29T00:42:22;13.20;;;9.15;;
81229;SDS011;70701;44.452;18.652;2023-07-29T00:44:48;19.33;;;10.05;;
81229;SDS011;70701;44.452;18.652;2023-07-29T00:47:14;14.88;;;10.18;;
81229;SDS011;70701;44.452;18.652;2023-07-29T00:49:40;15.18;;;10.20;;
81229;SDS011;70701;44.452;18.652;2023-07-29T00:52:07;15.52;;;9.52;;
81229;SDS011;70701;44.452;18.652;2023-07-29T00:54:33;12.10;;;9.38;;
81229;SDS011;70701;44.452;18.652;2023-07-29T00:56:59;14.38;;;9.88;;
81229;SDS011;70701;44.452;18.652;2023-07-29T00:59:25;12.30;;;8.63;;
81229;SDS011;70701;44.452;18.652;2023-07-29T01:01:53;12.43;;;8.88;;
81229;SDS011;70701;44.452;18.652;2023-07-29T01:04:19;12.52;;;9.45;;
81229;SDS011;70701;44.452;18.652;2023-07-29T01:09:39;12.63;;;9.68;;
81229;SDS011;70701;44.452;18.652;2023-07-29T01:12:54;11.98;;;9.38;;
81229;SDS011;70701;44.452;18.652;2023-07-29T01:18:05;12.50;;;9.77;;
81229;SDS011;70701;44.452;18.652;2023-07-29T01:20:36;14.88;;;9.80;;
81229;SDS011;70701;44.452;18.652;2023-07-29T01:23:04;13.15;;;9.82;;
81229;SDS011;70701;44.452;18.652;2023-07-29T01:25:30;11.70;;;10.40;;
81229;SDS011;70701;44.452;18.652;2023-07-29T01:27:55;12.85;;;9.73;;
81229;SDS011;70701;44.452;18.652;2023-07-29T01:30:23;10.38;;;8.52;;
81229;SDS011;70701;44.452;18.652;2023-07-29T01:32:54;13.05;;;10.02;;
81229;SDS011;70701;44.452;18.652;2023-07-29T01:38:27;18.83;;;10.10;;
81229;SDS011;70701;44.452;18.652;2023-07-29T01:40:57;13.15;;;9.52;;
81229;SDS011;70701;44.452;18.652;2023-07-29T01:43:27;11.85;;;9.13;;
81229;SDS011;70701;44.452;18.652;2023-07-29T01:45:54;12.52;;;8.98;;
81229;SDS011;70701;44.452;18.652;2023-07-29T01:48:20;11.40;;;9.02;;
81229;SDS011;70701;44.452;18.652;2023-07-29T01:50:47;10.10;;;8.63;;
81229;SDS011;70701;44.452;18.652;2023-07-29T01:53:13;12.35;;;9.23;;
81229;SDS011;70701;44.452;18.652;2023-07-29T01:55:40;11.90;;;8.82;;
81229;SDS011;70701;44.452;18.652;2023-07-29T01:58:06;11.90;;;9.07;;
81229;SDS011;70701;44.452;18.652;2023-07-29T02:00:34;12.98;;;8.52;;
81229;SDS011;70701;44.452;18.652;2023-07-29T02:03:00;12.75;;;9.05;;
81229;SDS011;70701;44.452;18.652;2023-07-29T02:05:26;13.48;;;9.07;;
81229;SDS011;70701;44.452;18.652;2023-07-29T02:07:52;11.25;;;9.00;;
81229;SDS011;70701;44.452;18.652;2023-07-29T02:10:18;11.65;;;9.10;;
81229;SDS011;70701;44.452;18.652;2023-07-29T02:12:43;11.05;;;9.13;;
81229;SDS011;70701;44.452;18.652;2023-07-29T02:15:10;12.15;;;9.35;;
81229;SDS011;70701;44.452;18.652;2023-07-29T02:17:36;10.45;;;9.25;;
81229;SDS011;70701;44.452;18.652;2023-07-29T02:20:02;11.80;;;8.43;;
81229;SDS011;70701;44.452;18.652;2023-07-29T02:22:29;12.45;;;8.82;;
81229;SDS011;70701;44.452;18.652;2023-07-29T02:24:55;14.00;;;9.25;;
81229;SDS011;70701;44.452;18.652;2023-07-29T02:27:20;12.85;;;9.10;;
81229;SDS011;70701;44.452;18.652;2023-07-29T02:29:46;12.60;;;9.77;;
81229;SDS011;70701;44.452;18.652;2023-07-29T02:32:12;11.55;;;9.60;;
81229;SDS011;70701;44.452;18.652;2023-07-29T02:34:38;13.65;;;9.07;;
81229;SDS011;70701;44.452;18.652;2023-07-29T02:37:03;10.65;;;8.98;;
81229;SDS011;70701;44.452;18.652;2023-07-29T02:39:30;12.77;;;9.27;;
81229;SDS011;70701;44.452;18.652;2023-07-29T02:41:56;16.02;;;9.25;;
81229;SDS011;70701;44.452;18.652;2023-07-29T02:44:23;13.88;;;9.75;;
81229;SDS011;70701;44.452;18.652;2023-07-29T02:46:49;11.77;;;9.40;;
81229;SDS011;70701;44.452;18.652;2023-07-29T02:49:17;11.13;;;9.40;;
81229;SDS011;70701;44.452;18.652;2023-07-29T02:51:43;10.43;;;9.25;;
81229;SDS011;70701;44.452;18.652;2023-07-29T02:54:08;11.88;;;9.80;;
81229;SDS011;70701;44.452;18.652;2023-07-29T02:56:35;13.15;;;8.98;;
81229;SDS011;70701;44.452;18.652;2023-07-29T02:59:01;10.73;;;9.10;;
81229;SDS011;70701;44.452;18.652;2023-07-29T03:01:29;12.25;;;8.25;;
81229;SDS011;70701;44.452;18.652;2023-07-29T03:03:54;11.75;;;8.90;;
81229;SDS011;70701;44.452;18.652;2023-07-29T03:06:20;11.50;;;9.05;;
81229;SDS011;70701;44.452;18.652;2023-07-29T03:08:46;10.68;;;9.32;;
81229;SDS011;70701;44.452;18.652;2023-07-29T03:11:12;10.25;;;9.15;;
81229;SDS011;70701;44.452;18.652;2023-07-29T03:13:38;12.75;;;9.50;;
81229;SDS011;70701;44.452;18.652;2023-07-29T03:16:22;13.98;;;8.77;;
81229;SDS011;70701;44.452;18.652;2023-07-29T03:18:53;11.05;;;9.43;;
81229;SDS011;70701;44.452;18.652;2023-07-29T03:21:19;13.05;;;8.60;;
81229;SDS011;70701;44.452;18.652;2023-07-29T03:23:44;12.25;;;8.52;;
81229;SDS011;70701;44.452;18.652;2023-07-29T03:26:10;13.30;;;9.02;;
81229;SDS011;70701;44.452;18.652;2023-07-29T03:28:37;10.65;;;8.02;;
81229;SDS011;70701;44.452;18.652;2023-07-29T03:31:04;10.75;;;9.65;;
81229;SDS011;70701;44.452;18.652;2023-07-29T03:33:31;12.48;;;9.55;;
81229;SDS011;70701;44.452;18.652;2023-07-29T03:35:57;15.82;;;10.63;;
81229;SDS011;70701;44.452;18.652;2023-07-29T03:38:23;9.75;;;8.68;;
81229;SDS011;70701;44.452;18.652;2023-07-29T03:40:48;11.15;;;9.20;;
81229;SDS011;70701;44.452;18.652;2023-07-29T03:43:14;17.30;;;10.57;;
81229;SDS011;70701;44.452;18.652;2023-07-29T03:45:41;18.48;;;10.80;;
81229;SDS011;70701;44.452;18.652;2023-07-29T03:48:07;12.05;;;8.38;;
81229;SDS011;70701;44.452;18.652;2023-07-29T03:50:33;10.70;;;7.63;;
81229;SDS011;70701;44.452;18.652;2023-07-29T03:53:03;10.98;;;8.60;;
81229;SDS011;70701;44.452;18.652;2023-07-29T03:55:29;11.73;;;8.65;;
81229;SDS011;70701;44.452;18.652;2023-07-29T03:57:56;15.50;;;8.77;;
81229;SDS011;70701;44.452;18.652;2023-07-29T04:00:22;12.32;;;9.10;;
81229;SDS011;70701;44.452;18.652;2023-07-29T04:02:48;13.60;;;9.73;;
81229;SDS011;70701;44.452;18.652;2023-07-29T04:05:15;10.38;;;9.05;;
81229;SDS011;70701;44.452;18.652;2023-07-29T04:07:40;11.23;;;9.52;;
81229;SDS011;70701;44.452;18.652;2023-07-29T04:10:06;11.02;;;9.00;;
81229;SDS011;70701;44.452;18.652;2023-07-29T04:12:32;9.98;;;8.95;;
81229;SDS011;70701;44.452;18.652;2023-07-29T04:14:58;10.65;;;8.50;;
81229;SDS011;70701;44.452;18.652;2023-07-29T04:17:24;14.27;;;8.43;;
81229;SDS011;70701;44.452;18.652;2023-07-29T04:19:49;11.98;;;8.75;;
81229;SDS011;70701;44.452;18.652;2023-07-29T04:22:16;13.07;;;8.68;;
81229;SDS011;70701;44.452;18.652;2023-07-29T04:24:42;12.75;;;8.88;;
81229;SDS011;70701;44.452;18.652;2023-07-29T04:27:08;12.15;;;9.40;;
81229;SDS011;70701;44.452;18.652;2023-07-29T04:29:33;11.70;;;10.05;;
81229;SDS011;70701;44.452;18.652;2023-07-29T04:32:01;16.67;;;9.75;;
81229;SDS011;70701;44.452;18.652;2023-07-29T04:34:29;13.10;;;10.55;;
81229;SDS011;70701;44.452;18.652;2023-07-29T04:36:56;15.43;;;11.95;;
81229;SDS011;70701;44.452;18.652;2023-07-29T04:39:21;12.02;;;10.57;;
81229;SDS011;70701;44.452;18.652;2023-07-29T04:41:47;13.32;;;10.13;;
81229;SDS011;70701;44.452;18.652;2023-07-29T04:44:14;12.40;;;10.25;;
81229;SDS011;70701;44.452;18.652;2023-07-29T04:46:39;14.00;;;9.75;;
81229;SDS011;70701;44.452;18.652;2023-07-29T04:49:05;13.88;;;10.38;;
81229;SDS011;70701;44.452;18.652;2023-07-29T04:51:31;14.50;;;9.75;;
81229;SDS011;70701;44.452;18.652;2023-07-29T04:53:57;13.38;;;9.43;;
81229;SDS011;70701;44.452;18.652;2023-07-29T04:56:23;16.40;;;9.55;;
81229;SDS011;70701;44.452;18.652;2023-07-29T04:59:09;14.10;;;10.65;;
81229;SDS011;70701;44.452;18.652;2023-07-29T05:01:34;12.68;;;9.93;;
81229;SDS011;70701;44.452;18.652;2023-07-29T05:04:00;13.38;;;10.23;;
81229;SDS011;70701;44.452;18.652;2023-07-29T05:06:26;14.85;;;11.10;;
81229;SDS011;70701;44.452;18.652;2023-07-29T05:08:51;12.00;;;9.95;;
81229;SDS011;70701;44.452;18.652;2023-07-29T05:11:17;13.30;;;9.68;;
81229;SDS011;70701;44.452;18.652;2023-07-29T05:13:42;12.20;;;10.15;;
81229;SDS011;70701;44.452;18.652;2023-07-29T05:16:10;12.10;;;10.73;;
81229;SDS011;70701;44.452;18.652;2023-07-29T05:18:36;12.52;;;9.60;;
81229;SDS011;70701;44.452;18.652;2023-07-29T05:21:03;12.20;;;9.48;;
81229;SDS011;70701;44.452;18.652;2023-07-29T05:23:29;12.85;;;9.65;;
81229;SDS011;70701;44.452;18.652;2023-07-29T05:25:55;13.60;;;9.40;;
81229;SDS011;70701;44.452;18.652;2023-07-29T05:28:20;17.20;;;10.38;;
81229;SDS011;70701;44.452;18.652;2023-07-29T05:30:46;12.52;;;10.63;;
81229;SDS011;70701;44.452;18.652;2023-07-29T05:33:11;13.75;;;9.55;;
81229;SDS011;70701;44.452;18.652;2023-07-29T05:35:38;12.00;;;10.02;;
81229;SDS011;70701;44.452;18.652;2023-07-29T05:38:05;14.20;;;9.63;;
81229;SDS011;70701;44.452;18.652;2023-07-29T05:40:33;11.38;;;9.32;;
81229;SDS011;70701;44.452;18.652;2023-07-29T05:42:59;11.85;;;10.05;;
81229;SDS011;70701;44.452;18.652;2023-07-29T05:45:24;12.57;;;9.73;;
81229;SDS011;70701;44.452;18.652;2023-07-29T05:47:50;10.88;;;9.27;;
81229;SDS011;70701;44.452;18.652;2023-07-29T05:50:16;10.60;;;8.63;;
81229;SDS011;70701;44.452;18.652;2023-07-29T05:52:42;11.93;;;9.45;;
81229;SDS011;70701;44.452;18.652;2023-07-29T05:55:07;10.55;;;9.38;;
81229;SDS011;70701;44.452;18.652;2023-07-29T05:57:33;10.88;;;9.07;;
81229;SDS011;70701;44.452;18.652;2023-07-29T05:59:59;11.88;;;8.85;;
81229;SDS011;70701;44.452;18.652;2023-07-29T06:02:27;11.88;;;9.88;;
81229;SDS011;70701;44.452;18.652;2023-07-29T06:04:52;11.90;;;9.45;;
81229;SDS011;70701;44.452;18.652;2023-07-29T06:07:18;12.63;;;9.38;;
81229;SDS011;70701;44.452;18.652;2023-07-29T06:09:44;11.82;;;9.13;;
81229;SDS011;70701;44.452;18.652;2023-07-29T06:12:10;10.35;;;9.30;;
81229;SDS011;70701;44.452;18.652;2023-07-29T06:14:37;12.07;;;9.90;;
81229;SDS011;70701;44.452;18.652;2023-07-29T06:17:02;10.85;;;9.57;;
81229;SDS011;70701;44.452;18.652;2023-07-29T06:19:28;12.02;;;9.88;;
81229;SDS011;70701;44.452;18.652;2023-07-29T06:21:55;11.43;;;8.40;;
81229;SDS011;70701;44.452;18.652;2023-07-29T06:24:21;11.00;;;9.75;;
81229;SDS011;70701;44.452;18.652;2023-07-29T06:26:47;11.80;;;9.57;;
81229;SDS011;70701;44.452;18.652;2023-07-29T06:29:12;15.32;;;11.60;;
81229;SDS011;70701;44.452;18.652;2023-07-29T06:31:38;13.00;;;11.60;;
81229;SDS011;70701;44.452;18.652;2023-07-29T06:34:03;15.23;;;10.88;;
81229;SDS011;70701;44.452;18.652;2023-07-29T06:36:29;12.85;;;9.23;;
81229;SDS011;70701;44.452;18.652;2023-07-29T06:38:54;11.55;;;10.10;;
81229;SDS011;70701;44.452;18.652;2023-07-29T06:41:20;12.73;;;9.60;;
81229;SDS011;70701;44.452;18.652;2023-07-29T06:43:46;12.38;;;10.27;;
81229;SDS011;70701;44.452;18.652;2023-07-29T06:46:11;11.77;;;9.40;;
81229;SDS011;70701;44.452;18.652;2023-07-29T06:48:37;15.10;;;9.40;;
81229;SDS011;70701;44.452;18.652;2023-07-29T06:51:02;10.23;;;8.38;;
81229;SDS011;70701;44.452;18.652;2023-07-29T06:53:28;15.05;;;10.30;;
81229;SDS011;70701;44.452;18.652;2023-07-29T06:55:54;13.45;;;9.40;;
81229;SDS011;70701;44.452;18.652;2023-07-29T06:58:21;12.18;;;9.38;;
81229;SDS011;70701;44.452;18.652;2023-07-29T07:00:47;15.13;;;9.45;;
81229;SDS011;70701;44.452;18.652;2023-07-29T07:03:12;13.85;;;8.73;;
81229;SDS011;70701;44.452;18.652;2023-07-29T07:05:38;11.00;;;8.00;;
81229;SDS011;70701;44.452;18.652;2023-07-29T07:08:04;11.98;;;7.90;;
81229;SDS011;70701;44.452;18.652;2023-07-29T07:10:29;12.40;;;7.65;;
81229;SDS011;70701;44.452;18.652;2023-07-29T07:12:55;9.77;;;7.78;;
81229;SDS011;70701;44.452;18.652;2023-07-29T07:15:20;9.13;;;7.28;;
81229;SDS011;70701;44.452;18.652;2023-07-29T07:17:46;15.75;;;7.88;;
81229;SDS011;70701;44.452;18.652;2023-07-29T07:20:12;10.48;;;7.55;;
81229;SDS011;70701;44.452;18.652;2023-07-29T07:22:37;10.20;;;7.60;;
81229;SDS011;70701;44.452;18.652;2023-07-29T07:25:04;9.88;;;6.88;;
81229;SDS011;70701;44.452;18.652;2023-07-29T07:27:30;9.63;;;7.68;;
81229;SDS011;70701;44.452;18.652;2023-07-29T07:29:55;9.15;;;7.38;;
81229;SDS011;70701;44.452;18.652;2023-07-29T07:32:21;15.32;;;7.82;;
81229;SDS011;70701;44.452;18.652;2023-07-29T07:34:47;8.98;;;7.10;;
81229;SDS011;70701;44.452;18.652;2023-07-29T07:37:13;9.35;;;6.72;;
81229;SDS011;70701;44.452;18.652;2023-07-29T07:39:39;9.35;;;7.22;;
81229;SDS011;70701;44.452;18.652;2023-07-29T07:42:05;8.85;;;7.20;;
81229;SDS011;70701;44.452;18.652;2023-07-29T07:44:31;10.57;;;7.32;;
81229;SDS011;70701;44.452;18.652;2023-07-29T07:46:56;8.52;;;7.03;;
81229;SDS011;70701;44.452;18.652;2023-07-29T07:49:22;9.52;;;7.57;;
81229;SDS011;70701;44.452;18.652;2023-07-29T07:51:48;10.00;;;7.32;;
81229;SDS011;70701;44.452;18.652;2023-07-29T07:54:13;8.63;;;6.43;;
81229;SDS011;70701;44.452;18.652;2023-07-29T07:56:39;11.32;;;7.35;;
81229;SDS011;70701;44.452;18.652;2023-07-29T07:59:05;9.05;;;6.68;;
81229;SDS011;70701;44.452;18.652;2023-07-29T08:01:34;8.20;;;6.95;;
81229;SDS011;70701;44.452;18.652;2023-07-29T08:04:01;9.88;;;6.68;;
81229;SDS011;70701;44.452;18.652;2023-07-29T08:06:27;9.85;;;7.00;;
81229;SDS011;70701;44.452;18.652;2023-07-29T08:08:52;10.18;;;6.85;;
81229;SDS011;70701;44.452;18.652;2023-07-29T08:11:18;9.15;;;6.72;;
81229;SDS011;70701;44.452;18.652;2023-07-29T08:13:43;8.77;;;6.18;;
81229;SDS011;70701;44.452;18.652;2023-07-29T08:16:09;11.10;;;6.50;;
81229;SDS011;70701;44.452;18.652;2023-07-29T08:18:34;9.27;;;7.05;;
81229;SDS011;70701;44.452;18.652;2023-07-29T08:21:00;10.13;;;6.80;;
81229;SDS011;70701;44.452;18.652;2023-07-29T08:23:30;11.52;;;6.40;;
81229;SDS011;70701;44.452;18.652;2023-07-29T08:25:58;9.48;;;6.53;;
81229;SDS011;70701;44.452;18.652;2023-07-29T08:28:31;8.63;;;6.07;;
81229;SDS011;70701;44.452;18.652;2023-07-29T08:30:58;6.70;;;5.50;;
81229;SDS011;70701;44.452;18.652;2023-07-29T08:33:24;7.10;;;5.40;;
81229;SDS011;70701;44.452;18.652;2023-07-29T08:35:50;8.27;;;5.07;;
81229;SDS011;70701;44.452;18.652;2023-07-29T08:38:15;8.75;;;5.45;;
81229;SDS011;70701;44.452;18.652;2023-07-29T08:43:32;7.75;;;5.32;;
81229;SDS011;70701;44.452;18.652;2023-07-29T08:45:59;9.35;;;5.00;;
81229;SDS011;70701;44.452;18.652;2023-07-29T08:48:41;7.18;;;4.97;;
81229;SDS011;70701;44.452;18.652;2023-07-29T08:51:07;7.57;;;4.78;;
81229;SDS011;70701;44.452;18.652;2023-07-29T08:53:36;8.48;;;5.18;;
81229;SDS011;70701;44.452;18.652;2023-07-29T08:56:03;7.95;;;4.97;;
81229;SDS011;70701;44.452;18.652;2023-07-29T08:58:30;10.88;;;5.45;;
81229;SDS011;70701;44.452;18.652;2023-07-29T09:00:56;9.60;;;5.03;;
81229;SDS011;70701;44.452;18.652;2023-07-29T09:03:21;8.25;;;4.90;;
81229;SDS011;70701;44.452;18.652;2023-07-29T09:05:48;7.60;;;4.60;;
81229;SDS011;70701;44.452;18.652;2023-07-29T09:08:15;7.47;;;4.82;;
81229;SDS011;70701;44.452;18.652;2023-07-29T09:10:41;11.10;;;4.95;;
81229;SDS011;70701;44.452;18.652;2023-07-29T09:13:08;7.93;;;5.00;;
81229;SDS011;70701;44.452;18.652;2023-07-29T09:15:34;9.13;;;4.68;;
81229;SDS011;70701;44.452;18.652;2023-07-29T09:18:11;6.78;;;4.25;;
81229;SDS011;70701;44.452;18.652;2023-07-29T09:20:40;6.18;;;4.10;;
81229;SDS011;70701;44.452;18.652;2023-07-29T09:23:09;8.52;;;4.18;;
81229;SDS011;70701;44.452;18.652;2023-07-29T09:25:36;6.00;;;4.07;;
81229;SDS011;70701;44.452;18.652;2023-07-29T09:28:08;7.32;;;4.45;;
81229;SDS011;70701;44.452;18.652;2023-07-29T09:33:02;6.75;;;4.45;;
81229;SDS011;70701;44.452;18.652;2023-07-29T09:35:29;6.82;;;4.35;;
81229;SDS011;70701;44.452;18.652;2023-07-29T09:37:55;8.60;;;4.20;;
81229;SDS011;70701;44.452;18.652;2023-07-29T09:40:21;6.28;;;4.00;;
81229;SDS011;70701;44.452;18.652;2023-07-29T09:42:48;7.85;;;4.53;;
81229;SDS011;70701;44.452;18.652;2023-07-29T09:45:21;6.65;;;4.35;;
81229;SDS011;70701;44.452;18.652;2023-07-29T09:47:48;7.13;;;4.38;;
81229;SDS011;70701;44.452;18.652;2023-07-29T09:50:16;5.32;;;3.78;;
81229;SDS011;70701;44.452;18.652;2023-07-29T09:52:42;6.32;;;3.47;;
81229;SDS011;70701;44.452;18.652;2023-07-29T09:55:12;7.13;;;3.67;;
81229;SDS011;70701;44.452;18.652;2023-07-29T09:57:39;7.03;;;4.07;;
81229;SDS011;70701;44.452;18.652;2023-07-29T10:00:06;8.23;;;3.80;;
81229;SDS011;70701;44.452;18.652;2023-07-29T10:02:37;6.95;;;3.97;;
81229;SDS011;70701;44.452;18.652;2023-07-29T10:05:04;8.02;;;4.95;;
81229;SDS011;70701;44.452;18.652;2023-07-29T10:07:31;7.78;;;4.15;;
81229;SDS011;70701;44.452;18.652;2023-07-29T10:09:58;8.88;;;5.00;;
81229;SDS011;70701;44.452;18.652;2023-07-29T10:12:24;8.27;;;4.97;;
81229;SDS011;70701;44.452;18.652;2023-07-29T10:14:50;9.48;;;6.18;;
81229;SDS011;70701;44.452;18.652;2023-07-29T10:17:16;7.68;;;4.78;;
81229;SDS011;70701;44.452;18.652;2023-07-29T10:19:41;6.80;;;4.00;;
81229;SDS011;70701;44.452;18.652;2023-07-29T10:22:10;8.63;;;4.20;;
81229;SDS011;70701;44.452;18.652;2023-07-29T10:24:38;8.85;;;4.25;;
81229;SDS011;70701;44.452;18.652;2023-07-29T10:27:07;6.40;;;3.65;;
81229;SDS011;70701;44.452;18.652;2023-07-29T10:29:38;7.53;;;3.80;;
81229;SDS011;70701;44.452;18.652;2023-07-29T10:32:04;7.28;;;3.72;;
81229;SDS011;70701;44.452;18.652;2023-07-29T10:34:31;9.00;;;5.68;;
81229;SDS011;70701;44.452;18.652;2023-07-29T10:37:05;9.63;;;4.20;;
81229;SDS011;70701;44.452;18.652;2023-07-29T10:39:51;6.57;;;3.83;;
81229;SDS011;70701;44.452;18.652;2023-07-29T10:42:18;8.52;;;4.55;;
81229;SDS011;70701;44.452;18.652;2023-07-29T10:44:47;11.75;;;6.60;;
81229;SDS011;70701;44.452;18.652;2023-07-29T10:47:21;11.23;;;7.28;;
81229;SDS011;70701;44.452;18.652;2023-07-29T10:49:58;9.02;;;4.25;;
81229;SDS011;70701;44.452;18.652;2023-07-29T10:52:37;6.45;;;3.95;;
81229;SDS011;70701;44.452;18.652;2023-07-29T10:55:23;6.40;;;4.15;;
81229;SDS011;70701;44.452;18.652;2023-07-29T10:57:50;8.63;;;3.90;;
81229;SDS011;70701;44.452;18.652;2023-07-29T11:00:16;8.23;;;3.97;;
81229;SDS011;70701;44.452;18.652;2023-07-29T11:02:46;9.75;;;4.25;;
81229;SDS011;70701;44.452;18.652;2023-07-29T11:05:24;9.00;;;4.50;;
81229;SDS011;70701;44.452;18.652;2023-07-29T11:07:50;8.48;;;4.63;;
81229;SDS011;70701;44.452;18.652;2023-07-29T11:10:16;8.75;;;4.22;;
81229;SDS011;70701;44.452;18.652;2023-07-29T11:15:26;13.10;;;6.05;;
81229;SDS011;70701;44.452;18.652;2023-07-29T11:17:56;11.35;;;5.65;;
81229;SDS011;70701;44.452;18.652;2023-07-29T11:20:27;8.20;;;5.80;;
81229;SDS011;70701;44.452;18.652;2023-07-29T11:22:57;12.68;;;5.93;;
81229;SDS011;70701;44.452;18.652;2023-07-29T11:25:25;8.15;;;4.72;;
81229;SDS011;70701;44.452;18.652;2023-07-29T11:27:52;9.15;;;5.47;;
81229;SDS011;70701;44.452;18.652;2023-07-29T11:30:19;7.82;;;4.35;;
81229;SDS011;70701;44.452;18.652;2023-07-29T11:32:45;9.95;;;5.63;;
81229;SDS011;70701;44.452;18.652;2023-07-29T11:35:12;15.38;;;12.48;;
81229;SDS011;70701;44.452;18.652;2023-07-29T11:37:40;13.35;;;8.73;;
81229;SDS011;70701;44.452;18.652;2023-07-29T11:40:06;9.63;;;7.55;;
81229;SDS011;70701;44.452;18.652;2023-07-29T11:42:35;10.30;;;5.60;;
81229;SDS011;70701;44.452;18.652;2023-07-29T11:45:02;7.97;;;4.97;;
81229;SDS011;70701;44.452;18.652;2023-07-29T11:47:30;11.38;;;5.05;;
81229;SDS011;70701;44.452;18.652;2023-07-29T11:49:59;10.43;;;5.55;;
81229;SDS011;70701;44.452;18.652;2023-07-29T11:52:27;10.98;;;5.20;;
81229;SDS011;70701;44.452;18.652;2023-07-29T11:54:54;8.65;;;5.47;;
81229;SDS011;70701;44.452;18.652;2023-07-29T11:57:20;12.98;;;8.35;;
81229;SDS011;70701;44.452;18.652;2023-07-29T11:59:46;11.70;;;7.03;;
81229;SDS011;70701;44.452;18.652;2023-07-29T12:02:13;9.10;;;6.07;;
81229;SDS011;70701;44.452;18.652;2023-07-29T12:04:40;13.77;;;8.70;;
81229;SDS011;70701;44.452;18.652;2023-07-29T12:07:07;9.75;;;5.97;;
81229;SDS011;70701;44.452;18.652;2023-07-29T12:09:33;9.57;;;6.00;;
81229;SDS011;70701;44.452;18.652;2023-07-29T12:12:01;13.48;;;6.03;;
81229;SDS011;70701;44.452;18.652;2023-07-29T12:14:30;10.52;;;5.63;;
81229;SDS011;70701;44.452;18.652;2023-07-29T12:16:55;12.23;;;8.02;;
81229;SDS011;70701;44.452;18.652;2023-07-29T12:19:21;9.80;;;5.15;;
81229;SDS011;70701;44.452;18.652;2023-07-29T12:21:50;8.90;;;6.00;;
81229;SDS011;70701;44.452;18.652;2023-07-29T12:24:16;9.30;;;5.50;;
81229;SDS011;70701;44.452;18.652;2023-07-29T12:26:42;10.23;;;5.35;;
81229;SDS011;70701;44.452;18.652;2023-07-29T12:31:39;7.97;;;5.40;;
81229;SDS011;70701;44.452;18.652;2023-07-29T12:34:05;11.45;;;5.57;;
81229;SDS011;70701;44.452;18.652;2023-07-29T12:36:44;15.85;;;8.73;;
81229;SDS011;70701;44.452;18.652;2023-07-29T12:39:21;12.55;;;6.60;;
81229;SDS011;70701;44.452;18.652;2023-07-29T12:41:52;11.07;;;8.02;;
81229;SDS011;70701;44.452;18.652;2023-07-29T12:44:19;9.25;;;5.50;;
81229;SDS011;70701;44.452;18.652;2023-07-29T12:46:46;7.97;;;5.03;;
81229;SDS011;70701;44.452;18.652;2023-07-29T12:49:12;9.20;;;4.90;;
81229;SDS011;70701;44.452;18.652;2023-07-29T12:51:37;11.52;;;5.70;;
81229;SDS011;70701;44.452;18.652;2023-07-29T12:54:03;11.32;;;5.75;;
81229;SDS011;70701;44.452;18.652;2023-07-29T12:56:30;11.20;;;5.38;;
81229;SDS011;70701;44.452;18.652;2023-07-29T12:58:59;9.88;;;5.57;;
81229;SDS011;70701;44.452;18.652;2023-07-29T13:01:25;7.85;;;4.75;;
81229;SDS011;70701;44.452;18.652;2023-07-29T13:03:52;9.18;;;6.20;;
81229;SDS011;70701;44.452;18.652;2023-07-29T13:06:18;8.98;;;5.30;;
81229;SDS011;70701;44.452;18.652;2023-07-29T13:08:44;8.38;;;4.57;;
81229;SDS011;70701;44.452;18.652;2023-07-29T13:11:11;10.05;;;4.75;;
81229;SDS011;70701;44.452;18.652;2023-07-29T13:13:36;10.90;;;6.40;;
81229;SDS011;70701;44.452;18.652;2023-07-29T13:16:02;12.82;;;6.50;;
81229;SDS011;70701;44.452;18.652;2023-07-29T13:18:28;8.88;;;5.80;;
81229;SDS011;70701;44.452;18.652;2023-07-29T13:20:54;9.18;;;5.90;;
81229;SDS011;70701;44.452;18.652;2023-07-29T13:23:20;8.52;;;5.53;;
81229;SDS011;70701;44.452;18.652;2023-07-29T13:25:46;9.50;;;5.90;;
81229;SDS011;70701;44.452;18.652;2023-07-29T13:28:12;11.05;;;6.13;;
81229;SDS011;70701;44.452;18.652;2023-07-29T13:30:38;8.43;;;5.90;;
81229;SDS011;70701;44.452;18.652;2023-07-29T13:33:07;9.93;;;6.03;;
81229;SDS011;70701;44.452;18.652;2023-07-29T13:35:33;9.35;;;6.70;;
81229;SDS011;70701;44.452;18.652;2023-07-29T13:37:59;12.02;;;6.22;;
81229;SDS011;70701;44.452;18.652;2023-07-29T13:40:25;11.93;;;6.85;;
81229;SDS011;70701;44.452;18.652;2023-07-29T13:42:51;12.68;;;7.90;;
81229;SDS011;70701;44.452;18.652;2023-07-29T13:45:17;10.82;;;7.10;;
81229;SDS011;70701;44.452;18.652;2023-07-29T13:47:43;13.27;;;7.28;;
81229;SDS011;70701;44.452;18.652;2023-07-29T13:50:09;11.18;;;6.05;;
81229;SDS011;70701;44.452;18.652;2023-07-29T13:52:35;12.63;;;7.00;;
81229;SDS011;70701;44.452;18.652;2023-07-29T13:55:02;11.43;;;6.97;;
81229;SDS011;70701;44.452;18.652;2023-07-29T13:57:29;12.10;;;6.00;;
81229;SDS011;70701;44.452;18.652;2023-07-29T13:59:54;8.68;;;5.40;;
81229;SDS011;70701;44.452;18.652;2023-07-29T14:02:20;11.32;;;5.25;;
81229;SDS011;70701;44.452;18.652;2023-07-29T14:04:45;12.35;;;7.53;;
81229;SDS011;70701;44.452;18.652;2023-07-29T14:07:13;11.98;;;6.60;;
81229;SDS011;70701;44.452;18.652;2023-07-29T14:09:38;8.85;;;5.95;;
81229;SDS011;70701;44.452;18.652;2023-07-29T14:12:04;8.75;;;5.10;;
81229;SDS011;70701;44.452;18.652;2023-07-29T14:14:31;7.57;;;4.82;;
81229;SDS011;70701;44.452;18.652;2023-07-29T14:16:56;8.10;;;4.72;;
81229;SDS011;70701;44.452;18.652;2023-07-29T14:19:22;8.00;;;5.05;;
81229;SDS011;70701;44.452;18.652;2023-07-29T14:21:48;8.63;;;5.53;;
81229;SDS011;70701;44.452;18.652;2023-07-29T14:24:14;7.93;;;5.53;;
81229;SDS011;70701;44.452;18.652;2023-07-29T14:26:41;8.40;;;5.10;;
81229;SDS011;70701;44.452;18.652;2023-07-29T14:29:07;9.05;;;5.43;;
81229;SDS011;70701;44.452;18.652;2023-07-29T14:31:33;7.35;;;5.63;;
81229;SDS011;70701;44.452;18.652;2023-07-29T14:33:59;9.95;;;6.07;;
81229;SDS011;70701;44.452;18.652;2023-07-29T14:36:28;7.57;;;5.07;;
81229;SDS011;70701;44.452;18.652;2023-07-29T14:38:56;9.70;;;6.97;;
81229;SDS011;70701;44.452;18.652;2023-07-29T14:41:22;10.45;;;7.10;;
81229;SDS011;70701;44.452;18.652;2023-07-29T14:43:48;8.48;;;5.75;;